Milford, Utah
Current Conditions -  °F | °C
As of 7:52 AM on Saturday 25 Oct 2014 (Local Time) from KMLF Reporting Station
Clear Clear  
Wind Chill:   Ceiling: Unl
Heat Index:   Visibility: 10mi
Dew Point: -2°   Wind: 8mph
Humidity: 62%   Direction: 190°S
Pressure: 30.15"   Gusts: NA
Location:  38.4°N, 113.01°W
Report Text: KMLF 251352Z AUTO 19007KT 10SM CLR 05/M02 A3015 RMK AO2 SLP185 T00501017 TSNO
Loading
Personal Weather Stations






























Interactive Weather Map
Tropical Storm Tracking
New forecast layout! Learn more

10-Day Weather Forecast

Advertisements
Track Severe Weather on mobile